sensor_id;sensor_type;location;lat;lon;timestamp;P1;durP1;ratioP1;P2;durP2;ratioP2
75608;SDS011;64194;51.044;13.780;2023-02-03T00:00:04;7.97;;;3.78;;
75608;SDS011;64194;51.044;13.780;2023-02-03T00:04:11;7.72;;;2.83;;
75608;SDS011;64194;51.044;13.780;2023-02-03T00:08:13;9.40;;;3.03;;
75608;SDS011;64194;51.044;13.780;2023-02-03T00:12:17;6.95;;;2.95;;
75608;SDS011;64194;51.044;13.780;2023-02-03T00:16:19;8.90;;;3.75;;
75608;SDS011;64194;51.044;13.780;2023-02-03T00:20:21;8.35;;;3.05;;
75608;SDS011;64194;51.044;13.780;2023-02-03T00:24:22;7.72;;;2.80;;
75608;SDS011;64194;51.044;13.780;2023-02-03T00:28:24;8.23;;;3.65;;
75608;SDS011;64194;51.044;13.780;2023-02-03T00:32:28;8.55;;;2.83;;
75608;SDS011;64194;51.044;13.780;2023-02-03T00:36:30;9.60;;;3.00;;
75608;SDS011;64194;51.044;13.780;2023-02-03T00:40:32;6.03;;;3.15;;
75608;SDS011;64194;51.044;13.780;2023-02-03T00:44:35;7.82;;;3.03;;
75608;SDS011;64194;51.044;13.780;2023-02-03T00:48:37;10.38;;;3.50;;
75608;SDS011;64194;51.044;13.780;2023-02-03T00:52:38;8.77;;;3.40;;
75608;SDS011;64194;51.044;13.780;2023-02-03T00:56:40;8.43;;;2.75;;
75608;SDS011;64194;51.044;13.780;2023-02-03T01:00:42;9.50;;;3.17;;
75608;SDS011;64194;51.044;13.780;2023-02-03T01:04:44;8.73;;;3.17;;
75608;SDS011;64194;51.044;13.780;2023-02-03T01:08:45;9.70;;;3.20;;
75608;SDS011;64194;51.044;13.780;2023-02-03T01:12:47;9.80;;;2.53;;
75608;SDS011;64194;51.044;13.780;2023-02-03T01:16:49;8.68;;;2.90;;
75608;SDS011;64194;51.044;13.780;2023-02-03T01:20:51;9.65;;;2.70;;
75608;SDS011;64194;51.044;13.780;2023-02-03T01:24:52;8.82;;;3.10;;
75608;SDS011;64194;51.044;13.780;2023-02-03T01:28:55;5.53;;;2.28;;
75608;SDS011;64194;51.044;13.780;2023-02-03T01:32:58;6.22;;;2.33;;
75608;SDS011;64194;51.044;13.780;2023-02-03T01:37:00;3.85;;;1.65;;
75608;SDS011;64194;51.044;13.780;2023-02-03T01:41:03;6.85;;;1.75;;
75608;SDS011;64194;51.044;13.780;2023-02-03T01:45:07;8.32;;;2.15;;
75608;SDS011;64194;51.044;13.780;2023-02-03T01:49:17;5.05;;;1.63;;
75608;SDS011;64194;51.044;13.780;2023-02-03T01:53:23;6.85;;;1.90;;
75608;SDS011;64194;51.044;13.780;2023-02-03T01:57:26;9.82;;;3.00;;
75608;SDS011;64194;51.044;13.780;2023-02-03T02:01:35;4.78;;;1.60;;
75608;SDS011;64194;51.044;13.780;2023-02-03T02:05:39;6.72;;;1.77;;
75608;SDS011;64194;51.044;13.780;2023-02-03T02:09:46;5.30;;;1.88;;
75608;SDS011;64194;51.044;13.780;2023-02-03T02:13:49;5.18;;;1.67;;
75608;SDS011;64194;51.044;13.780;2023-02-03T02:17:57;7.75;;;1.70;;
75608;SDS011;64194;51.044;13.780;2023-02-03T02:22:22;5.97;;;1.95;;
75608;SDS011;64194;51.044;13.780;2023-02-03T02:31:05;6.00;;;2.28;;
75608;SDS011;64194;51.044;13.780;2023-02-03T02:35:46;6.50;;;2.15;;
75608;SDS011;64194;51.044;13.780;2023-02-03T02:40:08;7.03;;;2.53;;
75608;SDS011;64194;51.044;13.780;2023-02-03T02:44:21;7.22;;;2.70;;
75608;SDS011;64194;51.044;13.780;2023-02-03T02:48:36;8.60;;;3.00;;
75608;SDS011;64194;51.044;13.780;2023-02-03T02:52:45;6.45;;;2.20;;
75608;SDS011;64194;51.044;13.780;2023-02-03T02:56:52;9.48;;;2.70;;
75608;SDS011;64194;51.044;13.780;2023-02-03T03:00:57;7.22;;;2.58;;
75608;SDS011;64194;51.044;13.780;2023-02-03T03:04:59;7.40;;;3.53;;
75608;SDS011;64194;51.044;13.780;2023-02-03T03:13:12;8.43;;;2.80;;
75608;SDS011;64194;51.044;13.780;2023-02-03T03:17:23;11.70;;;3.50;;
75608;SDS011;64194;51.044;13.780;2023-02-03T03:21:33;7.20;;;2.45;;
75608;SDS011;64194;51.044;13.780;2023-02-03T03:25:40;7.30;;;2.95;;
75608;SDS011;64194;51.044;13.780;2023-02-03T03:29:47;5.53;;;2.15;;
75608;SDS011;64194;51.044;13.780;2023-02-03T03:33:53;6.68;;;2.83;;
75608;SDS011;64194;51.044;13.780;2023-02-03T03:37:57;6.90;;;2.35;;
75608;SDS011;64194;51.044;13.780;2023-02-03T03:46:36;7.35;;;2.45;;
75608;SDS011;64194;51.044;13.780;2023-02-03T03:50:45;5.20;;;2.08;;
75608;SDS011;64194;51.044;13.780;2023-02-03T03:54:52;8.02;;;2.50;;
75608;SDS011;64194;51.044;13.780;2023-02-03T03:58:55;6.55;;;2.50;;
75608;SDS011;64194;51.044;13.780;2023-02-03T04:03:01;7.68;;;2.85;;
75608;SDS011;64194;51.044;13.780;2023-02-03T04:07:07;6.30;;;2.30;;
75608;SDS011;64194;51.044;13.780;2023-02-03T04:11:08;7.65;;;2.47;;
75608;SDS011;64194;51.044;13.780;2023-02-03T04:15:10;8.07;;;2.58;;
75608;SDS011;64194;51.044;13.780;2023-02-03T04:19:11;6.13;;;3.33;;
75608;SDS011;64194;51.044;13.780;2023-02-03T04:23:13;9.55;;;3.75;;
75608;SDS011;64194;51.044;13.780;2023-02-03T04:27:14;8.60;;;3.85;;
75608;SDS011;64194;51.044;13.780;2023-02-03T04:31:16;9.52;;;3.70;;
75608;SDS011;64194;51.044;13.780;2023-02-03T04:35:18;6.75;;;3.05;;
75608;SDS011;64194;51.044;13.780;2023-02-03T04:39:19;7.15;;;3.60;;
75608;SDS011;64194;51.044;13.780;2023-02-03T04:43:21;6.22;;;3.03;;
75608;SDS011;64194;51.044;13.780;2023-02-03T04:47:22;7.28;;;3.05;;
75608;SDS011;64194;51.044;13.780;2023-02-03T04:51:24;7.70;;;3.42;;
75608;SDS011;64194;51.044;13.780;2023-02-03T04:55:26;10.07;;;4.50;;
75608;SDS011;64194;51.044;13.780;2023-02-03T04:59:28;9.68;;;3.80;;
75608;SDS011;64194;51.044;13.780;2023-02-03T05:03:30;8.90;;;4.20;;
75608;SDS011;64194;51.044;13.780;2023-02-03T05:07:31;8.30;;;3.95;;
75608;SDS011;64194;51.044;13.780;2023-02-03T05:11:33;10.05;;;4.55;;
75608;SDS011;64194;51.044;13.780;2023-02-03T05:15:34;8.10;;;4.13;;
75608;SDS011;64194;51.044;13.780;2023-02-03T05:19:36;10.40;;;4.38;;
75608;SDS011;64194;51.044;13.780;2023-02-03T05:23:38;8.32;;;4.03;;
75608;SDS011;64194;51.044;13.780;2023-02-03T05:27:39;8.50;;;3.90;;
75608;SDS011;64194;51.044;13.780;2023-02-03T05:31:42;7.90;;;3.80;;
75608;SDS011;64194;51.044;13.780;2023-02-03T05:35:43;8.23;;;3.90;;
75608;SDS011;64194;51.044;13.780;2023-02-03T05:39:45;9.10;;;4.20;;
75608;SDS011;64194;51.044;13.780;2023-02-03T05:43:46;8.70;;;4.00;;
75608;SDS011;64194;51.044;13.780;2023-02-03T05:47:48;10.45;;;4.75;;
75608;SDS011;64194;51.044;13.780;2023-02-03T05:51:50;10.52;;;4.53;;
75608;SDS011;64194;51.044;13.780;2023-02-03T05:55:53;9.32;;;4.68;;
75608;SDS011;64194;51.044;13.780;2023-02-03T05:59:55;11.20;;;4.35;;
75608;SDS011;64194;51.044;13.780;2023-02-03T06:03:56;9.13;;;3.72;;
75608;SDS011;64194;51.044;13.780;2023-02-03T06:07:58;10.90;;;4.13;;
75608;SDS011;64194;51.044;13.780;2023-02-03T06:12:01;9.50;;;4.57;;
75608;SDS011;64194;51.044;13.780;2023-02-03T06:16:03;11.52;;;4.25;;
75608;SDS011;64194;51.044;13.780;2023-02-03T06:20:06;12.88;;;4.80;;
75608;SDS011;64194;51.044;13.780;2023-02-03T06:24:09;8.63;;;4.03;;
75608;SDS011;64194;51.044;13.780;2023-02-03T06:28:11;8.80;;;4.75;;
75608;SDS011;64194;51.044;13.780;2023-02-03T06:32:12;10.05;;;4.90;;
75608;SDS011;64194;51.044;13.780;2023-02-03T06:36:14;8.13;;;4.05;;
75608;SDS011;64194;51.044;13.780;2023-02-03T06:40:16;7.85;;;3.50;;
75608;SDS011;64194;51.044;13.780;2023-02-03T06:44:18;9.40;;;4.05;;
75608;SDS011;64194;51.044;13.780;2023-02-03T06:52:56;7.95;;;3.75;;
75608;SDS011;64194;51.044;13.780;2023-02-03T06:56:57;9.55;;;4.18;;
75608;SDS011;64194;51.044;13.780;2023-02-03T07:06:00;7.30;;;3.47;;
75608;SDS011;64194;51.044;13.780;2023-02-03T07:15:30;6.35;;;3.28;;
75608;SDS011;64194;51.044;13.780;2023-02-03T07:19:33;7.68;;;3.33;;
75608;SDS011;64194;51.044;13.780;2023-02-03T07:23:34;7.63;;;3.42;;
75608;SDS011;64194;51.044;13.780;2023-02-03T07:27:37;7.68;;;3.45;;
75608;SDS011;64194;51.044;13.780;2023-02-03T07:31:39;7.70;;;3.17;;
75608;SDS011;64194;51.044;13.780;2023-02-03T07:35:40;6.65;;;3.00;;
75608;SDS011;64194;51.044;13.780;2023-02-03T07:45:29;4.97;;;2.63;;
75608;SDS011;64194;51.044;13.780;2023-02-03T07:59:26;7.85;;;3.22;;
75608;SDS011;64194;51.044;13.780;2023-02-03T08:08:20;8.13;;;3.10;;
75608;SDS011;64194;51.044;13.780;2023-02-03T08:12:21;6.80;;;3.47;;
75608;SDS011;64194;51.044;13.780;2023-02-03T08:20:49;5.50;;;2.50;;
75608;SDS011;64194;51.044;13.780;2023-02-03T08:24:51;7.55;;;2.80;;
75608;SDS011;64194;51.044;13.780;2023-02-03T08:28:53;5.40;;;2.15;;
75608;SDS011;64194;51.044;13.780;2023-02-03T08:42:38;5.93;;;2.28;;
75608;SDS011;64194;51.044;13.780;2023-02-03T08:46:40;5.07;;;1.75;;
75608;SDS011;64194;51.044;13.780;2023-02-03T08:56:44;6.13;;;2.20;;
75608;SDS011;64194;51.044;13.780;2023-02-03T09:15:58;5.88;;;2.50;;
75608;SDS011;64194;51.044;13.780;2023-02-03T09:29:23;7.30;;;2.55;;
75608;SDS011;64194;51.044;13.780;2023-02-03T09:38:12;6.25;;;2.22;;
75608;SDS011;64194;51.044;13.780;2023-02-03T09:42:30;6.03;;;2.20;;
75608;SDS011;64194;51.044;13.780;2023-02-03T09:46:59;6.80;;;2.45;;
75608;SDS011;64194;51.044;13.780;2023-02-03T09:51:05;8.40;;;2.78;;
75608;SDS011;64194;51.044;13.780;2023-02-03T10:04:38;6.90;;;2.70;;
75608;SDS011;64194;51.044;13.780;2023-02-03T10:18:11;4.93;;;2.38;;
75608;SDS011;64194;51.044;13.780;2023-02-03T10:22:22;6.50;;;2.85;;
75608;SDS011;64194;51.044;13.780;2023-02-03T10:30:59;8.95;;;3.10;;
75608;SDS011;64194;51.044;13.780;2023-02-03T10:35:10;8.38;;;2.83;;
75608;SDS011;64194;51.044;13.780;2023-02-03T10:43:52;6.75;;;2.58;;
75608;SDS011;64194;51.044;13.780;2023-02-03T11:01:44;6.10;;;2.50;;
75608;SDS011;64194;51.044;13.780;2023-02-03T11:06:11;6.38;;;2.22;;
75608;SDS011;64194;51.044;13.780;2023-02-03T11:14:35;6.57;;;2.42;;
75608;SDS011;64194;51.044;13.780;2023-02-03T11:23:18;5.00;;;2.22;;
75608;SDS011;64194;51.044;13.780;2023-02-03T11:27:24;5.47;;;2.42;;
75608;SDS011;64194;51.044;13.780;2023-02-03T11:31:29;5.93;;;2.45;;
75608;SDS011;64194;51.044;13.780;2023-02-03T11:35:34;5.63;;;2.33;;
75608;SDS011;64194;51.044;13.780;2023-02-03T11:49:11;6.00;;;2.13;;
75608;SDS011;64194;51.044;13.780;2023-02-03T11:58:14;4.65;;;2.05;;
75608;SDS011;64194;51.044;13.780;2023-02-03T12:03:03;4.43;;;2.00;;
75608;SDS011;64194;51.044;13.780;2023-02-03T12:07:40;5.75;;;1.70;;
75608;SDS011;64194;51.044;13.780;2023-02-03T12:26:02;3.42;;;1.33;;
75608;SDS011;64194;51.044;13.780;2023-02-03T12:39:19;3.75;;;1.10;;
75608;SDS011;64194;51.044;13.780;2023-02-03T12:43:44;5.18;;;1.23;;
75608;SDS011;64194;51.044;13.780;2023-02-03T12:47:51;4.63;;;1.27;;
75608;SDS011;64194;51.044;13.780;2023-02-03T12:56:23;2.92;;;1.15;;
75608;SDS011;64194;51.044;13.780;2023-02-03T13:00:37;3.20;;;1.20;;
75608;SDS011;64194;51.044;13.780;2023-02-03T13:04:50;6.70;;;1.70;;
75608;SDS011;64194;51.044;13.780;2023-02-03T13:18:24;6.28;;;2.25;;
75608;SDS011;64194;51.044;13.780;2023-02-03T13:22:29;4.30;;;1.13;;
75608;SDS011;64194;51.044;13.780;2023-02-03T13:35:20;6.32;;;1.48;;
75608;SDS011;64194;51.044;13.780;2023-02-03T13:39:38;6.65;;;1.10;;
75608;SDS011;64194;51.044;13.780;2023-02-03T13:48:30;7.55;;;1.40;;
75608;SDS011;64194;51.044;13.780;2023-02-03T13:52:34;5.85;;;1.20;;
75608;SDS011;64194;51.044;13.780;2023-02-03T14:01:40;8.10;;;1.42;;
75608;SDS011;64194;51.044;13.780;2023-02-03T14:05:46;6.82;;;1.30;;
75608;SDS011;64194;51.044;13.780;2023-02-03T14:15:28;6.95;;;1.40;;
75608;SDS011;64194;51.044;13.780;2023-02-03T14:23:37;14.60;;;2.72;;
75608;SDS011;64194;51.044;13.780;2023-02-03T14:37:23;12.85;;;1.85;;
75608;SDS011;64194;51.044;13.780;2023-02-03T14:41:34;9.20;;;1.88;;
75608;SDS011;64194;51.044;13.780;2023-02-03T14:45:53;7.10;;;1.40;;
75608;SDS011;64194;51.044;13.780;2023-02-03T14:54:41;8.02;;;1.38;;
75608;SDS011;64194;51.044;13.780;2023-02-03T14:59:08;10.77;;;2.15;;
75608;SDS011;64194;51.044;13.780;2023-02-03T15:07:35;8.77;;;1.70;;
75608;SDS011;64194;51.044;13.780;2023-02-03T15:11:42;8.80;;;1.85;;
75608;SDS011;64194;51.044;13.780;2023-02-03T15:15:45;9.80;;;1.50;;
75608;SDS011;64194;51.044;13.780;2023-02-03T15:19:50;9.55;;;2.03;;
75608;SDS011;64194;51.044;13.780;2023-02-03T15:23:52;9.25;;;1.80;;
75608;SDS011;64194;51.044;13.780;2023-02-03T15:28:08;9.65;;;1.60;;
75608;SDS011;64194;51.044;13.780;2023-02-03T15:32:14;10.75;;;1.60;;
75608;SDS011;64194;51.044;13.780;2023-02-03T15:36:38;12.35;;;2.15;;
75608;SDS011;64194;51.044;13.780;2023-02-03T15:40:48;12.52;;;2.10;;
75608;SDS011;64194;51.044;13.780;2023-02-03T15:44:56;15.35;;;2.28;;
75608;SDS011;64194;51.044;13.780;2023-02-03T15:49:19;14.07;;;2.13;;
75608;SDS011;64194;51.044;13.780;2023-02-03T15:53:32;10.43;;;2.15;;
75608;SDS011;64194;51.044;13.780;2023-02-03T15:57:48;11.60;;;2.20;;
75608;SDS011;64194;51.044;13.780;2023-02-03T16:01:51;11.88;;;2.03;;
75608;SDS011;64194;51.044;13.780;2023-02-03T16:05:54;12.60;;;2.60;;
75608;SDS011;64194;51.044;13.780;2023-02-03T16:09:56;12.73;;;2.67;;
75608;SDS011;64194;51.044;13.780;2023-02-03T16:14:03;9.52;;;2.28;;
75608;SDS011;64194;51.044;13.780;2023-02-03T16:18:15;11.48;;;2.55;;
75608;SDS011;64194;51.044;13.780;2023-02-03T16:22:32;15.07;;;3.03;;
75608;SDS011;64194;51.044;13.780;2023-02-03T16:26:37;13.00;;;2.03;;
75608;SDS011;64194;51.044;13.780;2023-02-03T16:30:50;14.18;;;2.78;;
75608;SDS011;64194;51.044;13.780;2023-02-03T16:35:11;10.20;;;2.08;;
75608;SDS011;64194;51.044;13.780;2023-02-03T16:39:32;10.98;;;2.30;;
75608;SDS011;64194;51.044;13.780;2023-02-03T16:43:52;7.40;;;1.50;;
75608;SDS011;64194;51.044;13.780;2023-02-03T16:48:12;14.13;;;2.00;;
75608;SDS011;64194;51.044;13.780;2023-02-03T16:52:32;11.50;;;2.58;;
75608;SDS011;64194;51.044;13.780;2023-02-03T16:56:34;11.73;;;2.10;;
75608;SDS011;64194;51.044;13.780;2023-02-03T17:00:35;8.85;;;2.10;;
75608;SDS011;64194;51.044;13.780;2023-02-03T17:04:41;6.53;;;1.70;;
75608;SDS011;64194;51.044;13.780;2023-02-03T17:08:43;12.48;;;2.58;;
75608;SDS011;64194;51.044;13.780;2023-02-03T17:12:44;17.05;;;2.65;;
75608;SDS011;64194;51.044;13.780;2023-02-03T17:16:46;9.63;;;2.10;;
75608;SDS011;64194;51.044;13.780;2023-02-03T17:20:48;7.93;;;1.75;;
75608;SDS011;64194;51.044;13.780;2023-02-03T17:24:49;6.65;;;1.42;;
75608;SDS011;64194;51.044;13.780;2023-02-03T17:28:51;12.02;;;2.13;;
75608;SDS011;64194;51.044;13.780;2023-02-03T17:32:52;12.45;;;2.25;;
75608;SDS011;64194;51.044;13.780;2023-02-03T17:36:54;12.32;;;2.72;;
75608;SDS011;64194;51.044;13.780;2023-02-03T17:40:56;10.07;;;2.28;;
75608;SDS011;64194;51.044;13.780;2023-02-03T17:45:15;11.00;;;2.55;;
75608;SDS011;64194;51.044;13.780;2023-02-03T17:49:34;12.38;;;2.25;;
75608;SDS011;64194;51.044;13.780;2023-02-03T17:53:54;11.10;;;2.15;;
75608;SDS011;64194;51.044;13.780;2023-02-03T17:57:56;9.70;;;2.33;;
75608;SDS011;64194;51.044;13.780;2023-02-03T18:01:58;11.25;;;1.95;;
75608;SDS011;64194;51.044;13.780;2023-02-03T18:06:00;11.10;;;2.80;;
75608;SDS011;64194;51.044;13.780;2023-02-03T18:10:04;13.68;;;2.60;;
75608;SDS011;64194;51.044;13.780;2023-02-03T18:14:06;8.10;;;1.90;;
75608;SDS011;64194;51.044;13.780;2023-02-03T18:18:10;10.85;;;2.20;;
75608;SDS011;64194;51.044;13.780;2023-02-03T18:22:12;8.20;;;1.75;;
75608;SDS011;64194;51.044;13.780;2023-02-03T18:26:14;11.57;;;2.20;;
75608;SDS011;64194;51.044;13.780;2023-02-03T18:30:16;12.70;;;2.40;;
75608;SDS011;64194;51.044;13.780;2023-02-03T18:34:18;13.23;;;2.42;;
75608;SDS011;64194;51.044;13.780;2023-02-03T18:38:20;12.85;;;1.98;;
75608;SDS011;64194;51.044;13.780;2023-02-03T18:42:22;6.72;;;1.75;;
75608;SDS011;64194;51.044;13.780;2023-02-03T18:46:25;11.75;;;1.67;;
75608;SDS011;64194;51.044;13.780;2023-02-03T18:50:28;11.20;;;2.30;;
75608;SDS011;64194;51.044;13.780;2023-02-03T18:54:31;10.48;;;1.98;;
75608;SDS011;64194;51.044;13.780;2023-02-03T18:58:33;9.35;;;1.77;;
75608;SDS011;64194;51.044;13.780;2023-02-03T19:02:36;9.55;;;2.03;;
75608;SDS011;64194;51.044;13.780;2023-02-03T19:06:38;6.28;;;1.70;;
75608;SDS011;64194;51.044;13.780;2023-02-03T19:10:46;11.43;;;2.97;;
75608;SDS011;64194;51.044;13.780;2023-02-03T19:14:50;8.18;;;1.45;;
75608;SDS011;64194;51.044;13.780;2023-02-03T19:18:52;10.18;;;1.80;;
75608;SDS011;64194;51.044;13.780;2023-02-03T19:22:54;12.63;;;2.53;;
75608;SDS011;64194;51.044;13.780;2023-02-03T19:26:57;8.63;;;1.95;;
75608;SDS011;64194;51.044;13.780;2023-02-03T19:31:04;11.98;;;1.98;;
75608;SDS011;64194;51.044;13.780;2023-02-03T19:35:12;9.23;;;2.30;;
75608;SDS011;64194;51.044;13.780;2023-02-03T19:39:15;8.55;;;2.45;;
75608;SDS011;64194;51.044;13.780;2023-02-03T19:43:18;15.50;;;2.47;;
75608;SDS011;64194;51.044;13.780;2023-02-03T19:47:20;9.15;;;2.20;;
75608;SDS011;64194;51.044;13.780;2023-02-03T19:51:22;11.30;;;2.42;;
75608;SDS011;64194;51.044;13.780;2023-02-03T19:55:24;12.48;;;1.95;;
75608;SDS011;64194;51.044;13.780;2023-02-03T19:59:30;14.07;;;2.17;;
75608;SDS011;64194;51.044;13.780;2023-02-03T20:03:32;15.57;;;2.55;;
75608;SDS011;64194;51.044;13.780;2023-02-03T20:07:33;9.77;;;1.55;;
75608;SDS011;64194;51.044;13.780;2023-02-03T20:11:35;8.73;;;1.70;;
75608;SDS011;64194;51.044;13.780;2023-02-03T20:15:37;9.50;;;1.65;;
75608;SDS011;64194;51.044;13.780;2023-02-03T20:19:39;8.55;;;2.58;;
75608;SDS011;64194;51.044;13.780;2023-02-03T20:23:40;13.38;;;2.83;;
75608;SDS011;64194;51.044;13.780;2023-02-03T20:27:42;11.55;;;1.88;;
75608;SDS011;64194;51.044;13.780;2023-02-03T20:31:43;11.77;;;2.20;;
75608;SDS011;64194;51.044;13.780;2023-02-03T20:35:45;17.58;;;2.30;;
75608;SDS011;64194;51.044;13.780;2023-02-03T20:39:47;11.27;;;2.20;;
75608;SDS011;64194;51.044;13.780;2023-02-03T20:43:48;12.32;;;2.67;;
75608;SDS011;64194;51.044;13.780;2023-02-03T20:47:50;10.25;;;2.33;;
75608;SDS011;64194;51.044;13.780;2023-02-03T20:51:51;11.43;;;2.70;;
75608;SDS011;64194;51.044;13.780;2023-02-03T20:55:54;10.88;;;2.72;;
75608;SDS011;64194;51.044;13.780;2023-02-03T20:59:59;14.55;;;2.95;;
75608;SDS011;64194;51.044;13.780;2023-02-03T21:04:00;10.98;;;2.10;;
75608;SDS011;64194;51.044;13.780;2023-02-03T21:08:20;11.20;;;2.45;;
75608;SDS011;64194;51.044;13.780;2023-02-03T21:12:23;12.77;;;3.83;;
75608;SDS011;64194;51.044;13.780;2023-02-03T21:16:25;8.88;;;2.17;;
75608;SDS011;64194;51.044;13.780;2023-02-03T21:20:35;11.52;;;2.25;;
75608;SDS011;64194;51.044;13.780;2023-02-03T21:24:37;13.55;;;2.40;;
75608;SDS011;64194;51.044;13.780;2023-02-03T21:28:40;16.33;;;2.85;;
75608;SDS011;64194;51.044;13.780;2023-02-03T21:32:41;10.20;;;1.90;;
75608;SDS011;64194;51.044;13.780;2023-02-03T21:36:44;10.18;;;2.05;;
75608;SDS011;64194;51.044;13.780;2023-02-03T21:40:46;11.23;;;2.10;;
75608;SDS011;64194;51.044;13.780;2023-02-03T21:44:47;9.75;;;2.47;;
75608;SDS011;64194;51.044;13.780;2023-02-03T21:48:50;8.55;;;1.75;;
75608;SDS011;64194;51.044;13.780;2023-02-03T21:52:53;15.27;;;3.72;;
75608;SDS011;64194;51.044;13.780;2023-02-03T21:56:55;9.35;;;2.00;;
75608;SDS011;64194;51.044;13.780;2023-02-03T22:00:58;13.75;;;2.08;;
75608;SDS011;64194;51.044;13.780;2023-02-03T22:05:03;8.25;;;1.77;;
75608;SDS011;64194;51.044;13.780;2023-02-03T22:09:05;13.32;;;2.20;;
75608;SDS011;64194;51.044;13.780;2023-02-03T22:13:07;11.27;;;1.90;;
75608;SDS011;64194;51.044;13.780;2023-02-03T22:17:08;8.77;;;1.80;;
75608;SDS011;64194;51.044;13.780;2023-02-03T22:21:14;11.90;;;2.65;;
75608;SDS011;64194;51.044;13.780;2023-02-03T22:25:16;8.50;;;1.85;;
75608;SDS011;64194;51.044;13.780;2023-02-03T22:29:18;10.93;;;2.45;;
75608;SDS011;64194;51.044;13.780;2023-02-03T22:33:19;9.68;;;2.47;;
75608;SDS011;64194;51.044;13.780;2023-02-03T22:37:21;10.93;;;2.40;;
75608;SDS011;64194;51.044;13.780;2023-02-03T22:41:22;8.95;;;2.47;;
75608;SDS011;64194;51.044;13.780;2023-02-03T22:45:24;10.05;;;1.80;;
75608;SDS011;64194;51.044;13.780;2023-02-03T22:49:26;15.05;;;2.08;;
75608;SDS011;64194;51.044;13.780;2023-02-03T22:53:27;10.15;;;2.25;;
75608;SDS011;64194;51.044;13.780;2023-02-03T22:57:29;8.48;;;1.50;;
75608;SDS011;64194;51.044;13.780;2023-02-03T23:01:31;7.68;;;1.60;;
75608;SDS011;64194;51.044;13.780;2023-02-03T23:05:33;8.38;;;2.03;;
75608;SDS011;64194;51.044;13.780;2023-02-03T23:09:34;5.38;;;1.58;;
75608;SDS011;64194;51.044;13.780;2023-02-03T23:13:36;8.00;;;1.48;;
75608;SDS011;64194;51.044;13.780;2023-02-03T23:17:37;8.85;;;2.10;;
75608;SDS011;64194;51.044;13.780;2023-02-03T23:21:40;7.43;;;2.17;;
75608;SDS011;64194;51.044;13.780;2023-02-03T23:25:41;6.15;;;1.45;;
75608;SDS011;64194;51.044;13.780;2023-02-03T23:29:43;5.80;;;1.30;;
75608;SDS011;64194;51.044;13.780;2023-02-03T23:33:44;9.00;;;2.05;;
75608;SDS011;64194;51.044;13.780;2023-02-03T23:38:04;8.35;;;1.77;;
75608;SDS011;64194;51.044;13.780;2023-02-03T23:42:06;9.13;;;1.30;;
75608;SDS011;64194;51.044;13.780;2023-02-03T23:46:07;6.65;;;1.45;;
75608;SDS011;64194;51.044;13.780;2023-02-03T23:50:10;7.57;;;1.50;;
75608;SDS011;64194;51.044;13.780;2023-02-03T23:54:13;11.48;;;1.40;;
75608;SDS011;64194;51.044;13.780;2023-02-03T23:58:14;8.60;;;1.58;;
